地図

経路データ

SID SEASON NUMBER BASIN SUBBASIN NAME ISO_TIME NATURE LAT LON WMO_WIND WMO_PRES WMO_AGENCY TRACK_TYPE DIST2LAND LANDFALL IFLAG USA_AGENCY USA_ATCF_ID USA_LAT USA_LON USA_RECORD USA_STATUS USA_WIND USA_PRES USA_SSHS USA_R34_NE USA_R34_SE USA_R34_SW USA_R34_NW USA_R50_NE USA_R50_SE USA_R50_SW USA_R50_NW USA_R64_NE USA_R64_SE USA_R64_SW USA_R64_NW USA_POCI USA_ROCI USA_RMW USA_EYE TOKYO_LAT TOKYO_LON TOKYO_GRADE TOKYO_WIND TOKYO_PRES TOKYO_R50_DIR TOKYO_R50_LONG TOKYO_R50_SHORT TOKYO_R30_DIR TOKYO_R30_LONG TOKYO_R30_SHORT TOKYO_LAND CMA_LAT CMA_LON CMA_CAT CMA_WIND CMA_PRES HKO_LAT HKO_LON HKO_CAT HKO_WIND HKO_PRES NEWDELHI_LAT NEWDELHI_LON NEWDELHI_GRADE NEWDELHI_WIND NEWDELHI_PRES NEWDELHI_CI NEWDELHI_DP NEWDELHI_POCI REUNION_LAT REUNION_LON REUNION_TYPE REUNION_WIND REUNION_PRES REUNION_TNUM REUNION_CI REUNION_RMW REUNION_R34_NE REUNION_R34_SE REUNION_R34_SW REUNION_R34_NW REUNION_R50_NE REUNION_R50_SE REUNION_R50_SW REUNION_R50_NW REUNION_R64_NE REUNION_R64_SE REUNION_R64_SW REUNION_R64_NW BOM_LAT BOM_LON BOM_TYPE BOM_WIND BOM_PRES BOM_TNUM BOM_CI BOM_RMW BOM_R34_NE BOM_R34_SE BOM_R34_SW BOM_R34_NW BOM_R50_NE BOM_R50_SE BOM_R50_SW BOM_R50_NW BOM_R64_NE BOM_R64_SE BOM_R64_SW BOM_R64_NW BOM_ROCI BOM_POCI BOM_EYE BOM_POS_METHOD BOM_PRES_METHOD NADI_LAT NADI_LON NADI_CAT NADI_WIND NADI_PRES WELLINGTON_LAT WELLINGTON_LON WELLINGTON_WIND WELLINGTON_PRES DS824_LAT DS824_LON DS824_STAGE DS824_WIND DS824_PRES TD9636_LAT TD9636_LON TD9636_STAGE TD9636_WIND TD9636_PRES TD9635_LAT TD9635_LON TD9635_WIND TD9635_PRES TD9635_ROCI NEUMANN_LAT NEUMANN_LON NEUMANN_CLASS NEUMANN_WIND NEUMANN_PRES MLC_LAT MLC_LON MLC_CLASS MLC_WIND MLC_PRES USA_GUST BOM_GUST BOM_GUST_PER REUNION_GUST REUNION_GUST_PER USA_SEAHGT USA_SEARAD_NE USA_SEARAD_SE USA_SEARAD_SW USA_SEARAD_NW STORM_SPEED STORM_DIR
1897042S12062 1897 6 SI MM NOT_NAMED 1897-02-11 00:00:00 TS -12.3000 61.5000 main 962 941 _________O____ -1 -12.3000 61.5000 TC 10 271
1897042S12062 1897 6 SI MM NOT_NAMED 1897-02-11 03:00:00 TS -12.2901 61.0050 main 941 922 _________P____ -1 -12.2901 61.0050 TC 10 270
1897042S12062 1897 6 SI MM NOT_NAMED 1897-02-11 06:00:00 TS -12.3000 60.5000 main 922 906 _________O____ -1 -12.3000 60.5000 TC 10 267
1897042S12062 1897 6 SI MM NOT_NAMED 1897-02-11 09:00:00 TS -12.3425 59.9850 main 906 882 _________P____ -1 -12.3425 59.9850 TC 10 264
1897042S12062 1897 6 SI MM NOT_NAMED 1897-02-11 12:00:00 TS -12.4000 59.5000 main 882 874 _________O____ -1 -12.4000 59.5000 TC 9 263
1897042S12062 1897 6 SI MM NOT_NAMED 1897-02-11 15:00:00 TS -12.4499 59.0775 main 874 857 _________P____ -1 -12.4499 59.0775 TC 8 263
1897042S12062 1897 6 SI MM NOT_NAMED 1897-02-11 18:00:00 TS -12.5000 58.7000 main 857 853 _________O____ -1 -12.5000 58.7000 TC 7 262
1897042S12062 1897 6 SI MM NOT_NAMED 1897-02-11 21:00:00 TS -12.5500 58.3350 main 852 839 _________P____ -1 -12.5500 58.3350 TC 7 262
1897042S12062 1897 6 SI MM NOT_NAMED 1897-02-12 00:00:00 TS -12.6000 58.0000 main 839 830 _________O____ -1 -12.6000 58.0000 TC 6 261
1897042S12062 1897 6 SI MM NOT_NAMED 1897-02-12 03:00:00 TS -12.6499 57.6925 main 830 795 _________P____ -1 -12.6499 57.6925 TC 6 260
1897042S12062 1897 6 SI MM NOT_NAMED 1897-02-12 06:00:00 TS -12.7000 57.4000 main 795 765 _________O____ -1 -12.7000 57.4000 TC 6 260
1897042S12062 1897 6 SI MM NOT_NAMED 1897-02-12 09:00:00 TS -12.7500 57.0925 main 765 731 _________P____ -1 -12.7500 57.0925 TC 6 260
1897042S12062 1897 6 SI MM NOT_NAMED 1897-02-12 12:00:00 TS -12.8000 56.8000 main 731 711 _________O____ -1 -12.8000 56.8000 TC 5 260
1897042S12062 1897 6 SI MM NOT_NAMED 1897-02-12 15:00:00 TS -12.8424 56.5500 main 701 676 _________P____ -1 -12.8424 56.5500 TC 5 258
1897042S12062 1897 6 SI MM NOT_NAMED 1897-02-12 18:00:00 TS -12.9000 56.3000 main 676 642 _________O____ -1 -12.9000 56.3000 TC 6 254
1897042S12062 1897 6 SI MM NOT_NAMED 1897-02-12 21:00:00 TS -13.0000 55.9925 main 642 608 _________P____ -1 -13.0000 55.9925 TC 6 251
1897042S12062 1897 6 SI MM NOT_NAMED 1897-02-13 00:00:00 TS -13.1000 55.7000 main 608 583 _________O____ -1 -13.1000 55.7000 TC 5 252
1897042S12062 1897 6 SI MM NOT_NAMED 1897-02-13 03:00:00 TS -13.1574 55.4925 main 583 564 _________P____ -1 -13.1574 55.4925 TC 4 256
1897042S12062 1897 6 SI MM NOT_NAMED 1897-02-13 06:00:00 TS -13.2000 55.3000 main 564 544 _________O____ -1 -13.2000 55.3000 TC 4 258
1897042S12062 1897 6 SI MM NOT_NAMED 1897-02-13 09:00:00 TS -13.2500 55.0575 main 544 510 _________P____ -1 -13.2500 55.0575 TC 5 258
1897042S12062 1897 6 SI MM NOT_NAMED 1897-02-13 12:00:00 TS -13.3000 54.8000 main 510 489 _________O____ -1 -13.3000 54.8000 TC 5 259
1897042S12062 1897 6 SI MM NOT_NAMED 1897-02-13 15:00:00 TS -13.3500 54.5425 main 479 456 _________P____ -1 -13.3500 54.5425 TC 5 258
1897042S12062 1897 6 SI MM NOT_NAMED 1897-02-13 18:00:00 TS -13.4000 54.3000 main 456 434 _________O____ -1 -13.4000 54.3000 TC 4 258
1897042S12062 1897 6 SI MM NOT_NAMED 1897-02-13 21:00:00 TS -13.4424 54.1000 main 434 412 _________P____ -1 -13.4424 54.1000 TC 4 256
1897042S12062 1897 6 SI MM NOT_NAMED 1897-02-14 00:00:00 TS -13.5000 53.9000 main 412 388 _________O____ -1 -13.5000 53.9000 TC 5 251
1897042S12062 1897 6 SI MM NOT_NAMED 1897-02-14 03:00:00 TS -13.5925 53.6500 main 388 354 _________P____ -1 -13.5925 53.6500 TC 5 248
1897042S12062 1897 6 SI MM NOT_NAMED 1897-02-14 06:00:00 TS -13.7000 53.4000 main 354 330 _________O____ -1 -13.7000 53.4000 TC 5 246
1897042S12062 1897 6 SI MM NOT_NAMED 1897-02-14 09:00:00 TS -13.7925 53.1925 main 330 306 _________P____ -1 -13.7925 53.1925 TC 4 243
1897042S12062 1897 6 SI MM NOT_NAMED 1897-02-14 12:00:00 TS -13.9000 53.0000 main 306 281 _________O____ -1 -13.9000 53.0000 TC 5 237
1897042S12062 1897 6 SI MM NOT_NAMED 1897-02-14 15:00:00 TS -14.0425 52.8000 main 281 252 _________P____ -1 -14.0425 52.8000 TC 5 232
1897042S12062 1897 6 SI MM NOT_NAMED 1897-02-14 18:00:00 TS -14.2000 52.6000 main 252 227 _________O____ -1 -14.2000 52.6000 TC 5 233
1897042S12062 1897 6 SI MM NOT_NAMED 1897-02-14 21:00:00 TS -14.3350 52.3999 main 227 198 _________P____ -1 -14.3350 52.3999 TC 5 232
1897042S12062 1897 6 SI MM NOT_NAMED 1897-02-15 00:00:00 TS -14.5000 52.2000 main 198 170 _________O____ -1 -14.5000 52.2000 TC 6 226
1897042S12062 1897 6 SI MM NOT_NAMED 1897-02-15 03:00:00 TS -14.7275 51.9850 main 170 141 _________P____ -1 -14.7275 51.9850 TC 6 218
1897042S12062 1897 6 SI MM NOT_NAMED 1897-02-15 06:00:00 TS -15.0000 51.8000 main 141 128 _________O____ -1 -15.0000 51.8000 TC 6 208
1897042S12062 1897 6 SI MM NOT_NAMED 1897-02-15 09:00:00 TS -15.2850 51.6849 main 128 117 _________P____ -1 -15.2850 51.6849 TC 6 198
1897042S12062 1897 6 SI MM NOT_NAMED 1897-02-15 12:00:00 TS -15.6000 51.6000 main 120 116 _________O____ -1 -15.6000 51.6000 TC 7 196
1897042S12062 1897 6 SI MM NOT_NAMED 1897-02-15 15:00:00 TS -15.9425 51.4925 main 120 120 _________P____ -1 -15.9425 51.4925 TC 7 195
1897042S12062 1897 6 SI MM NOT_NAMED 1897-02-15 18:00:00 TS -16.3000 51.4000 main 130 130 _________O____ -1 -16.3000 51.4000 TC 7 191
1897042S12062 1897 6 SI MM NOT_NAMED 1897-02-15 21:00:00 TS -16.6575 51.3424 main 141 141 _________P____ -1 -16.6575 51.3424 TC 7 188
1897042S12062 1897 6 SI MM NOT_NAMED 1897-02-16 00:00:00 TS -17.0000 51.3000 main 161 161 _________O____ -1 -17.0000 51.3000 TC 7 188
1897042S12062 1897 6 SI MM NOT_NAMED 1897-02-16 03:00:00 TS -17.3075 51.2500 main 159 159 _________P____ -1 -17.3075 51.2500 TC 6 189
1897042S12062 1897 6 SI MM NOT_NAMED 1897-02-16 06:00:00 TS -17.6000 51.2000 main 173 170 _________O____ -1 -17.6000 51.2000 TC 6 190
1897042S12062 1897 6 SI MM NOT_NAMED 1897-02-16 09:00:00 TS -17.9000 51.1425 main 170 170 _________P____ -1 -17.9000 51.1425 TC 6 189
1897042S12062 1897 6 SI MM NOT_NAMED 1897-02-16 12:00:00 TS -18.2000 51.1000 main 178 178 _________O____ -1 -18.2000 51.1000 TC 6 186
1897042S12062 1897 6 SI MM NOT_NAMED 1897-02-16 15:00:00 TS -18.5075 51.0850 main 182 182 _________P____ -1 -18.5075 51.0850 TC 6 179
1897042S12062 1897 6 SI MM NOT_NAMED 1897-02-16 18:00:00 TS -18.8000 51.1000 main 191 191 _________O____ -1 -18.8000 51.1000 TC 5 175
1897042S12062 1897 6 SI MM NOT_NAMED 1897-02-16 21:00:00 TS -18.9900 51.1277 main 200 200 _________P____ -1 -18.9900 51.1277 TC 5 169
1897042S12062 1897 6 SI MM NOT_NAMED 1897-02-17 00:00:00 TS -19.3000 51.2000 main 220 220 _________O____ -1 -19.3000 51.2000 TC 10 169
1897042S12062 1897 6 SI MM NOT_NAMED 1897-02-17 03:00:00 TS -19.9400 51.3200 main 251 251 _________P____ -1 -19.9400 51.3200 TC 14 169
1897042S12062 1897 6 SI MM NOT_NAMED 1897-02-17 06:00:00 TS -20.7000 51.5000 main 292 292 _________O____ -1 -20.7000 51.5000 TC 15 165
1897042S12062 1897 6 SI MM NOT_NAMED 1897-02-17 09:00:00 TS -21.3875 51.7349 main 339 339 _________P____ -1 -21.3875 51.7349 TC 14 160
1897042S12062 1897 6 SI MM NOT_NAMED 1897-02-17 12:00:00 TS -22.0000 52.0000 main 345 337 _________O____ -1 -22.0000 52.0000 TC 12 157
1897042S12062 1897 6 SI MM NOT_NAMED 1897-02-17 15:00:00 TS -22.4874 52.2354 main 346 333 _________P____ -1 -22.4874 52.2354 TC 10 153
1897042S12062 1897 6 SI MM NOT_NAMED 1897-02-17 18:00:00 TS -22.9000 52.5000 main 339 333 _________O____ -1 -22.9000 52.5000 TC 10 146
1897042S12062 1897 6 SI MM NOT_NAMED 1897-02-17 21:00:00 TS -23.3150 52.8351 main 340 333 _________P____ -1 -23.3150 52.8351 TC 10 141
1897042S12062 1897 6 SI MM NOT_NAMED 1897-02-18 00:00:00 TS -23.7000 53.2000 main 344 344 _________O____ -1 -23.7000 53.2000 TC 10 139
1897042S12062 1897 6 SI MM NOT_NAMED 1897-02-18 03:00:00 TS -24.0499 53.5429 main 353 353 _________P____ -1 -24.0499 53.5429 TC 10 138
1897042S12062 1897 6 SI MM NOT_NAMED 1897-02-18 06:00:00 TS -24.4000 53.9000 main 375 375 _________O____ -1 -24.4000 53.9000 TC 10 137
1897042S12062 1897 6 SI MM NOT_NAMED 1897-02-18 09:00:00 TS -24.8000 54.3000 main 402 402 _________P____ -1 -24.8000 54.3000 TC 11 138
1897042S12062 1897 6 SI MM NOT_NAMED 1897-02-18 12:00:00 TS -25.2000 54.7000 main 434 434 _________O____ -1 -25.2000 54.7000 TC 10 138
1897042S12062 1897 6 SI MM NOT_NAMED 1897-02-18 15:00:00 TS -25.5498 55.0505 main 461 461 _________P____ -1 -25.5498 55.0505 TC 9 138
1897042S12062 1897 6 SI MM NOT_NAMED 1897-02-18 18:00:00 TS -25.9000 55.4000 main 503 503 _________O____ -1 -25.9000 55.4000 TC 10 138
1897042S12062 1897 6 SI MM NOT_NAMED 1897-02-18 21:00:00 TS -26.2925 55.7926 main 548 548 _________P____ -1 -26.2925 55.7926 TC 11 138
1897042S12062 1897 6 SI MM NOT_NAMED 1897-02-19 00:00:00 TS -26.7000 56.2000 main 595 595 _________O____ -1 -26.7000 56.2000 TC 11 138
1897042S12062 1897 6 SI MM NOT_NAMED 1897-02-19 03:00:00 TS -27.0999 56.6003 main 644 644 _________P____ -1 -27.0999 56.6003 TC 11 138
1897042S12062 1897 6 SI MM NOT_NAMED 1897-02-19 06:00:00 TS -27.5000 57.0000 main 696 696 _________O____ -1 -27.5000 57.0000 TC 11 138
1897042S12062 1897 6 SI MM NOT_NAMED 1897-02-19 09:00:00 TS -27.8923 57.3930 main 748 748 _________P____ -1 -27.8923 57.3930 TC 11 139
1897042S12062 1897 6 SI MM NOT_NAMED 1897-02-19 12:00:00 TS -28.3000 57.8000 main 802 802 _________O____ -1 -28.3000 57.8000 TC 11 139
1897042S12062 1897 6 SI MM NOT_NAMED 1897-02-19 15:00:00 TS -28.7499 58.2426 main 856 856 _________P____ -1 -28.7499 58.2426 TC 12 139
1897042S12062 1897 6 SI MM NOT_NAMED 1897-02-19 18:00:00 TS -29.2000 58.7000 main 925 925 _________O____ -1 -29.2000 58.7000 TC 11 137
1897042S12062 1897 6 SI MM NOT_NAMED 1897-02-19 21:00:00 TS -29.5847 59.1360 main 980 980 _________P____ -1 -29.5847 59.1360 TC 11 136
1897042S12062 1897 6 SI MM NOT_NAMED 1897-02-20 00:00:00 TS -30.0000 59.6000 main 1040 1040 _________O____ -1 -30.0000 59.6000 TC 13 137
1897042S12062 1897 6 SI MM NOT_NAMED 1897-02-20 03:00:00 TS -30.5200 60.1352 main 1111 1111 _________P____ -1 -30.5200 60.1352 TC 15 139
1897042S12062 1897 6 SI MM NOT_NAMED 1897-02-20 06:00:00 TS -31.1000 60.7000 main 1196 1196 _________O____ -1 -31.1000 60.7000 TC 15 140
1897042S12062 1897 6 SI MM NOT_NAMED 1897-02-20 09:00:00 TS -31.6698 61.2510 main 1281 1281 _________P____ -1 -31.6698 61.2510 TC 15 142
1897042S12062 1897 6 SI MM NOT_NAMED 1897-02-20 12:00:00 TS -32.3000 61.8000 main 1362 1362 _________O____ -1 -32.3000 61.8000 TC 16 145
1897042S12062 1897 6 SI MM NOT_NAMED 1897-02-20 15:00:00 TS -33.0124 62.3581 main 1458 1458 _________P____ -1 -33.0124 62.3581 TC 18 148
1897042S12062 1897 6 SI MM NOT_NAMED 1897-02-20 18:00:00 TS -33.8000 62.9000 main 1558 1558 _________O____ -1 -33.8000 62.9000 TC 18 152
1897042S12062 1897 6 SI MM NOT_NAMED 1897-02-20 21:00:00 TS -34.6378 63.4081 main 1642 1534 _________P____ -1 -34.6378 63.4081 TC 19 154
1897042S12062 1897 6 SI MM NOT_NAMED 1897-02-21 00:00:00 TS -35.5000 63.9000 main 1534 _________O____ -1 -35.5000 63.9000 TC 19 155

IBTrACS Databaseについて

本データベースは、米国NOAAが公開する1842年以降の世界の熱帯低気圧のベストトラックデータアーカイブInternational Best Track Archive for Climate Stewardship (IBTrACS)を、ウェブで閲覧しやすい形式に変換したものです。

最終更新日:2021-11-26